Time;durP1;ratioP1;P1;durP2;ratioP2;P2;SDS_P1;SDS_P2;PMS_P1;PMS_P2;Temp;Humidity;BMP_temperature;BMP_pressure;BME280_temperature;BME280_humidity;BME280_pressure;Samples;Min_cycle;Max_cycle;Signal;HPM_P1;HPM_P2
2023/06/14 00:02:11;;;;;;;7.22;2.00;;;;;;;-144.47;56.79;52566.13;4997351;28;20053;-67
2023/06/14 00:04:38;;;;;;;4.78;2.08;;;;;;;-144.47;57.01;52562.16;4990700;28;20034;-67
2023/06/14 00:07:04;;;;;;;4.70;2.05;;;;;;;-144.47;57.26;52552.22;4990710;28;20026;-64
2023/06/14 00:09:30;;;;;;;7.55;2.35;;;;;;;-144.47;57.62;52566.13;4985967;28;20036;-67
2023/06/14 00:11:55;;;;;;;3.78;1.70;;;;;;;-144.47;57.76;52558.19;4989333;28;20019;-68
2023/06/14 00:14:20;;;;;;;3.33;1.88;;;;;;;-144.47;58.12;52562.16;4989394;28;20078;-69
2023/06/14 00:16:46;;;;;;;8.90;2.92;;;;;;;-144.47;58.48;52550.25;4987596;28;20045;-69
2023/06/14 00:19:11;;;;;;;3.83;2.20;;;;;;;-144.47;58.63;52558.19;4989926;28;20077;-66
2023/06/14 00:21:37;;;;;;;5.57;2.10;;;;;;;-144.47;58.88;52554.22;4989632;28;20081;-68
2023/06/14 00:24:04;;;;;;;7.90;1.98;;;;;;;-144.47;59.16;52556.19;4989508;28;20465;-70
2023/06/14 00:26:29;;;;;;;7.57;1.95;;;;;;;-144.47;59.30;52548.25;4989794;28;20038;-69
2023/06/14 00:28:56;;;;;;;9.88;2.10;;;;;;;-144.47;59.75;52570.09;4988120;28;20385;-67
2023/06/14 00:31:22;;;;;;;8.98;2.13;;;;;;;-144.47;60.14;52546.25;4989582;28;20023;-67
2023/06/14 00:33:47;;;;;;;5.07;2.00;;;;;;;-144.47;60.27;52578.03;4989631;28;20506;-68
2023/06/14 00:36:13;;;;;;;3.58;2.00;;;;;;;-144.47;60.61;52572.09;4989535;28;20507;-67
2023/06/14 00:38:38;;;;;;;5.13;2.20;;;;;;;-144.47;60.89;52544.28;4989866;28;20245;-69
2023/06/14 00:41:04;;;;;;;5.28;2.30;;;;;;;-144.47;61.09;52589.97;4989728;28;20026;-68
2023/06/14 00:43:29;;;;;;;5.38;1.95;;;;;;;-144.47;61.40;52582.00;4989694;28;20118;-68
2023/06/14 00:45:55;;;;;;;3.97;2.00;;;;;;;-144.47;61.47;52578.03;4992836;28;20034;-68
2023/06/14 00:48:20;;;;;;;5.63;2.00;;;;;;;-144.47;61.84;52562.16;4994086;28;20053;-66
2023/06/14 00:50:48;;;;;;;5.90;2.45;;;;;;;-144.47;62.24;52570.09;4993345;28;20480;-69
2023/06/14 00:53:17;;;;;;;9.75;2.35;;;;;;;-144.47;62.26;52582.00;4993670;28;20098;-65
2023/06/14 00:55:43;;;;;;;4.25;2.00;;;;;;;-144.47;62.67;52589.97;4993268;28;20033;-68
2023/06/14 00:58:09;;;;;;;6.03;2.00;;;;;;;-144.47;62.68;52576.06;4993708;28;20405;-69
2023/06/14 01:00:34;;;;;;;8.13;2.50;;;;;;;-144.47;63.05;52560.16;4993107;28;20037;-68
2023/06/14 01:03:02;;;;;;;6.18;2.50;;;;;;;-144.47;63.22;52584.00;4993128;28;20026;-67
2023/06/14 01:05:27;;;;;;;3.78;2.05;;;;;;;-144.47;63.38;52568.13;4992400;28;20056;-67
2023/06/14 01:08:04;;;;;;;5.80;2.25;;;;;;;-144.47;63.35;52526.41;4992923;28;20457;-68
2023/06/14 01:10:39;;;;;;;5.70;2.30;;;;;;;-144.47;63.83;52566.13;4978806;28;20026;-68
2023/06/14 01:13:07;;;;;;;4.90;2.20;;;;;;;-144.47;63.78;52560.16;4992959;28;20023;-66
2023/06/14 01:15:34;;;;;;;13.25;2.88;;;;;;;-144.47;63.95;52550.25;4990400;28;20555;-67
2023/06/14 01:18:03;;;;;;;7.78;2.55;;;;;;;-144.47;64.25;52564.13;4992944;28;20026;-67
2023/06/14 01:20:31;;;;;;;5.55;2.38;;;;;;;-144.47;64.39;52585.97;4979792;28;20121;-67
2023/06/14 01:22:56;;;;;;;8.32;2.25;;;;;;;-144.47;64.68;52599.88;4992259;28;20117;-68
2023/06/14 01:25:22;;;;;;;11.50;2.78;;;;;;;-144.47;64.88;52564.13;4991953;28;20101;-68
2023/06/14 01:27:55;;;;;;;7.65;2.20;;;;;;;-144.47;64.90;52589.97;4992356;28;20399;-70
2023/06/14 01:30:22;;;;;;;4.35;2.13;;;;;;;-144.47;65.14;52601.88;4990525;28;20018;-66
2023/06/14 01:32:50;;;;;;;9.40;2.30;;;;;;;-144.47;65.24;52550.25;4992534;28;20550;-63
2023/06/14 01:35:16;;;;;;;5.90;2.65;;;;;;;-144.47;65.66;52550.25;4990564;28;20026;-68
2023/06/14 01:37:43;;;;;;;6.72;2.58;;;;;;;-144.47;65.98;52597.91;4992977;28;20030;-68
2023/06/14 01:40:10;;;;;;;11.20;2.78;;;;;;;-144.47;65.92;52578.03;4993522;28;20054;-67
2023/06/14 01:42:37;;;;;;;5.65;3.10;;;;;;;-144.47;66.28;52566.13;4993425;28;20022;-67
2023/06/14 01:45:05;;;;;;;4.68;2.30;;;;;;;-144.47;66.54;52568.13;4992601;28;20027;-68
2023/06/14 01:47:31;;;;;;;6.78;2.40;;;;;;;-144.47;66.75;52572.09;4993593;28;20089;-68
2023/06/14 01:49:57;;;;;;;9.75;2.55;;;;;;;-144.47;67.11;52574.06;4993168;28;20030;-67
2023/06/14 01:52:24;;;;;;;11.20;2.40;;;;;;;-144.47;67.37;52582.00;4992492;28;20046;-67
2023/06/14 01:54:50;;;;;;;7.47;2.33;;;;;;;-144.47;67.56;52591.94;4991792;28;20619;-66
2023/06/14 01:57:15;;;;;;;3.95;2.30;;;;;;;-144.47;67.60;52578.03;4991210;28;20042;-67
2023/06/14 01:59:41;;;;;;;4.38;2.08;;;;;;;-144.47;67.95;52550.25;4991969;28;20034;-66
2023/06/14 02:02:06;;;;;;;4.93;2.38;;;;;;;-144.47;68.21;52584.00;4991415;28;20061;-65
2023/06/14 02:04:32;;;;;;;5.82;2.45;;;;;;;-144.47;68.58;52601.88;4991311;28;20045;-67
2023/06/14 02:06:57;;;;;;;7.80;2.65;;;;;;;-144.47;68.90;52589.97;4991577;28;20104;-66
2023/06/14 02:09:23;;;;;;;4.70;2.33;;;;;;;-144.47;68.95;52578.03;4990258;28;20242;-67
2023/06/14 02:11:49;;;;;;;7.75;2.70;;;;;;;-144.47;69.12;52582.00;4991497;28;20041;-65
2023/06/14 02:14:14;;;;;;;6.70;2.92;;;;;;;-144.47;69.02;52584.00;4992403;28;20124;-68
2023/06/14 02:16:39;;;;;;;4.75;2.35;;;;;;;-144.47;69.39;52578.03;4991421;28;20030;-67
2023/06/14 02:19:05;;;;;;;4.95;2.35;;;;;;;-144.47;69.41;52601.88;4990017;28;20029;-68
2023/06/14 02:21:31;;;;;;;4.75;2.65;;;;;;;-144.47;69.66;52587.97;4989742;28;20022;-66
2023/06/14 02:23:58;;;;;;;9.25;2.05;;;;;;;-144.47;70.15;52584.00;4991009;28;20023;-67
2023/06/14 02:26:23;;;;;;;11.82;2.92;;;;;;;-144.47;70.24;52582.00;4991412;28;20026;-67
2023/06/14 02:28:49;;;;;;;6.88;2.58;;;;;;;-144.47;70.28;52585.97;4989277;28;20122;-67
2023/06/14 02:31:16;;;;;;;8.00;2.85;;;;;;;-144.47;70.66;52595.91;4991004;28;20113;-66
2023/06/14 02:33:41;;;;;;;8.82;2.50;;;;;;;-144.47;70.68;52584.00;4990953;28;20562;-67
2023/06/14 02:36:07;;;;;;;7.85;2.35;;;;;;;-144.47;70.95;52605.84;4990920;28;20022;-67
2023/06/14 02:38:32;;;;;;;4.72;2.15;;;;;;;-144.47;71.43;52584.00;4990019;28;20026;-68
2023/06/14 02:40:59;;;;;;;4.72;2.17;;;;;;;-144.47;71.73;52605.84;4991219;28;20089;-66
2023/06/14 02:43:25;;;;;;;9.07;2.42;;;;;;;-144.47;71.97;52597.91;4989828;28;20109;-65
2023/06/14 02:45:50;;;;;;;4.13;1.95;;;;;;;-144.47;71.68;52593.94;4990233;28;20061;-66
2023/06/14 02:48:16;;;;;;;5.50;2.30;;;;;;;-144.47;71.97;52582.00;4990891;28;20061;-66
2023/06/14 02:50:41;;;;;;;4.93;2.53;;;;;;;-144.47;72.27;52595.91;4990602;28;20086;-66
2023/06/14 02:53:07;;;;;;;4.97;2.50;;;;;;;-144.47;72.60;52605.84;4990864;28;20614;-64
2023/06/14 02:55:33;;;;;;;4.07;2.25;;;;;;;-144.47;72.62;52585.97;4990336;28;20396;-67
2023/06/14 02:57:58;;;;;;;4.63;2.20;;;;;;;-144.47;72.91;52593.94;4990850;28;20018;-67
2023/06/14 03:00:24;;;;;;;4.07;2.15;;;;;;;-144.47;73.05;52585.97;4990626;28;20026;-66
2023/06/14 03:02:51;;;;;;;5.20;2.50;;;;;;;-144.47;73.24;52591.94;4990513;28;20445;-66
2023/06/14 03:05:21;;;;;;;4.65;2.47;;;;;;;-144.47;73.19;52585.97;4989801;28;20050;-67
2023/06/14 03:07:47;;;;;;;9.38;2.30;;;;;;;-144.47;72.98;52591.94;4989682;28;20109;-65
2023/06/14 03:10:13;;;;;;;5.63;2.22;;;;;;;-144.47;73.40;52568.13;4977469;28;20170;-67
2023/06/14 03:12:38;;;;;;;10.07;2.47;;;;;;;-144.47;73.39;52603.84;4990511;28;20113;-66
2023/06/14 03:15:04;;;;;;;7.07;2.65;;;;;;;-144.47;73.46;52601.88;4988063;28;20019;-65
2023/06/14 03:17:33;;;;;;;4.32;2.40;;;;;;;-144.47;73.82;52580.03;4990471;28;20030;-68
2023/06/14 03:19:59;;;;;;;4.05;1.92;;;;;;;-144.47;74.01;52584.00;4990088;28;20038;-67
2023/06/14 03:22:25;;;;;;;3.63;2.20;;;;;;;-144.47;74.19;52599.88;4990818;28;20042;-65
2023/06/14 03:24:52;;;;;;;5.20;2.45;;;;;;;-144.47;74.51;52591.94;4990179;28;20639;-67
2023/06/14 03:27:18;;;;;;;4.38;2.10;;;;;;;-144.47;74.33;52570.09;4990732;28;20027;-67
2023/06/14 03:29:43;;;;;;;5.38;2.03;;;;;;;-144.47;74.49;52595.91;4988426;28;20400;-68
2023/06/14 03:32:09;;;;;;;7.43;2.42;;;;;;;-144.47;74.44;52601.88;4990686;28;20023;-67
2023/06/14 03:34:34;;;;;;;4.78;2.38;;;;;;;-144.47;74.74;52591.94;4988305;28;20026;-65
2023/06/14 03:37:00;;;;;;;6.15;2.53;;;;;;;-144.47;74.79;52597.91;4990223;28;20054;-69
2023/06/14 03:39:25;;;;;;;7.50;2.63;;;;;;;-144.47;75.10;52593.94;4990081;28;20054;-65
2023/06/14 03:41:50;;;;;;;8.18;2.30;;;;;;;-144.47;74.92;52589.97;4989141;28;20044;-66
2023/06/14 03:44:20;;;;;;;8.18;2.30;;;;;;;-144.47;75.16;52611.81;4987984;28;20411;-66
2023/06/14 03:46:46;;;;;;;7.25;2.30;;;;;;;-144.47;75.02;52576.06;4988140;28;20294;-66
2023/06/14 03:49:12;;;;;;;4.38;2.15;;;;;;;-144.47;75.46;52580.03;4989796;28;20091;-66
2023/06/14 03:51:38;;;;;;;8.10;2.92;;;;;;;-144.47;75.76;52580.03;4989848;28;20468;-66
2023/06/14 03:54:03;;;;;;;7.30;2.53;;;;;;;-144.47;75.65;52587.97;4988749;28;20053;-68
2023/06/14 03:56:28;;;;;;;3.88;2.10;;;;;;;-144.47;75.56;52595.91;4989733;28;20057;-67
2023/06/14 03:58:54;;;;;;;7.88;2.47;;;;;;;-144.47;75.40;52580.03;4988957;28;20322;-67
2023/06/14 04:01:19;;;;;;;3.60;2.20;;;;;;;-144.47;75.58;52597.91;4989816;28;20034;-67
2023/06/14 04:03:45;;;;;;;4.32;2.47;;;;;;;-144.47;75.52;52599.88;4980162;28;20019;-68
2023/06/14 04:06:11;;;;;;;4.20;2.15;;;;;;;-144.47;75.36;52599.88;4983898;28;20030;-67
2023/06/14 04:08:39;;;;;;;5.68;2.50;;;;;;;-144.47;75.39;52613.78;4984682;28;20109;-67
2023/06/14 04:11:05;;;;;;;4.93;2.38;;;;;;;-144.47;75.54;52609.81;4991831;28;20054;-64
2023/06/14 04:13:30;;;;;;;5.97;2.20;;;;;;;-144.47;75.45;52611.81;4984576;28;20061;-65
2023/06/14 04:15:57;;;;;;;9.15;2.75;;;;;;;-144.47;75.63;52589.97;4990427;28;20029;-68
2023/06/14 04:18:23;;;;;;;6.72;2.22;;;;;;;-144.47;75.90;52589.97;4987790;28;20057;-69
2023/06/14 04:20:49;;;;;;;5.53;2.78;;;;;;;-144.47;76.03;52605.84;4993235;28;20492;-67
2023/06/14 04:23:17;;;;;;;6.60;2.80;;;;;;;-144.47;75.30;52593.94;4993446;28;20026;-64
2023/06/14 04:25:45;;;;;;;6.88;2.90;;;;;;;-144.47;75.55;52611.81;4993537;28;20030;-67
2023/06/14 04:28:11;;;;;;;9.05;2.92;;;;;;;-144.47;75.15;52609.81;4993605;28;20168;-68
2023/06/14 04:30:38;;;;;;;11.10;2.88;;;;;;;-144.47;74.95;52603.84;4993613;28;20018;-67
2023/06/14 04:33:07;;;;;;;5.40;2.20;;;;;;;-144.47;74.98;52599.88;4987075;28;20073;-67
2023/06/14 04:35:35;;;;;;;10.10;2.88;;;;;;;-144.47;75.49;52607.84;4992630;28;20558;-67
2023/06/14 04:38:01;;;;;;;4.70;2.53;;;;;;;-144.47;75.04;52605.84;4991015;28;20048;-69
2023/06/14 04:40:27;;;;;;;4.55;2.47;;;;;;;-144.47;74.91;52593.94;4993314;28;20035;-69
2023/06/14 04:42:52;;;;;;;7.05;3.10;;;;;;;-144.47;74.83;52597.91;4993196;28;20030;-69
2023/06/14 04:45:18;;;;;;;7.47;2.72;;;;;;;-144.47;74.65;52576.06;5009043;23;20137;-68
2023/06/14 04:47:43;;;;;;;8.57;3.05;;;;;;;-144.47;74.37;52595.91;5012735;28;20260;-69
2023/06/14 04:50:12;;;;;;;7.35;3.13;;;;;;;-144.47;74.26;52597.91;5012722;28;20033;-69
2023/06/14 04:52:38;;;;;;;7.80;2.90;;;;;;;-144.47;74.31;52595.91;5012750;28;20076;-70
2023/06/14 04:55:04;;;;;;;6.13;3.10;;;;;;;-144.47;73.78;52572.09;5012449;28;20031;-69
2023/06/14 04:57:29;;;;;;;8.95;2.88;;;;;;;-144.47;73.54;52568.13;5012349;28;20025;-69
2023/06/14 04:59:55;;;;;;;6.03;2.92;;;;;;;-144.47;73.45;52591.94;5012676;28;20501;-67
2023/06/14 05:02:24;;;;;;;9.23;3.97;;;;;;;-144.47;73.77;52582.00;5012110;28;20391;-69
2023/06/14 05:04:50;;;;;;;8.30;3.75;;;;;;;-144.47;72.76;52582.00;5011668;28;20446;-68
2023/06/14 05:07:15;;;;;;;5.90;2.80;;;;;;;-144.47;72.42;52574.06;5012131;28;20523;-69
2023/06/14 05:09:41;;;;;;;5.63;2.85;;;;;;;-144.47;72.22;52580.03;5012100;28;20029;-67
2023/06/14 05:12:10;;;;;;;6.53;3.25;;;;;;;-144.47;71.74;52582.00;5012733;28;20037;-67
2023/06/14 05:14:36;;;;;;;6.97;2.70;;;;;;;-144.47;71.04;52574.06;5011218;28;20557;-68
2023/06/14 05:17:02;;;;;;;16.38;5.50;;;;;;;-144.47;70.80;52552.22;5011555;28;20026;-65
2023/06/14 05:19:28;;;;;;;8.13;3.20;;;;;;;-144.47;70.21;52578.03;5011694;28;20107;-67
2023/06/14 05:21:53;;;;;;;6.90;3.58;;;;;;;-144.47;70.02;52593.94;5012186;28;20022;-69
2023/06/14 05:24:22;;;;;;;10.73;3.65;;;;;;;-144.47;69.28;52580.03;5011169;28;20032;-68
2023/06/14 05:26:48;;;;;;;6.80;3.55;;;;;;;-144.47;69.22;52578.03;5011653;28;20029;-67
2023/06/14 05:29:14;;;;;;;7.70;3.67;;;;;;;-144.47;68.73;52574.06;5011502;28;20431;-69
2023/06/14 05:31:39;;;;;;;12.90;3.78;;;;;;;-144.47;68.38;52566.13;4998830;28;20225;-69
2023/06/14 05:34:05;;;;;;;7.32;4.07;;;;;;;-144.47;67.83;52589.97;5010504;28;20054;-68
2023/06/14 05:36:31;;;;;;;6.32;3.72;;;;;;;-144.47;67.73;52587.97;5005004;28;20032;-71
2023/06/14 05:38:59;;;;;;;6.75;3.38;;;;;;;-144.47;67.69;52599.88;5011715;28;20025;-72
2023/06/14 05:41:25;;;;;;;6.85;3.55;;;;;;;-144.47;67.19;52562.16;5011254;28;20113;-69
2023/06/14 05:43:52;;;;;;;8.43;3.58;;;;;;;-144.47;66.93;52582.00;5011182;28;20403;-66
2023/06/14 05:46:21;;;;;;;7.82;4.15;;;;;;;-144.47;66.61;52578.03;5011022;28;20403;-65
2023/06/14 05:48:47;;;;;;;9.60;3.95;;;;;;;-144.47;67.02;52550.25;5011445;28;20458;-69
2023/06/14 05:51:13;;;;;;;10.73;3.83;;;;;;;-144.47;65.92;52564.13;5011733;28;20050;-67
2023/06/14 05:53:38;;;;;;;11.88;4.13;;;;;;;-144.47;66.43;52560.16;5010808;28;20018;-69
2023/06/14 05:56:03;;;;;;;7.63;3.50;;;;;;;-144.47;65.99;52578.03;5011004;28;20026;-67
2023/06/14 05:58:29;;;;;;;9.40;3.60;;;;;;;-144.47;65.84;52566.13;5010283;28;20036;-68
2023/06/14 06:00:54;;;;;;;7.68;3.65;;;;;;;-144.47;65.42;52585.97;5010970;28;20095;-70
2023/06/14 06:03:20;;;;;;;8.88;3.47;;;;;;;-144.47;65.44;52562.16;5011441;28;20026;-71
2023/06/14 06:05:46;;;;;;;8.50;4.07;;;;;;;-144.47;65.73;52572.09;5010595;28;20045;-69
2023/06/14 06:08:11;;;;;;;12.07;3.90;;;;;;;-144.47;66.10;52593.94;5011012;28;20045;-65
2023/06/14 06:10:37;;;;;;;9.50;3.72;;;;;;;-144.47;65.32;52584.00;5010344;28;20048;-65
2023/06/14 06:13:02;;;;;;;8.18;3.70;;;;;;;-144.47;65.59;52564.13;5011246;28;20467;-67
2023/06/14 06:15:27;;;;;;;9.02;3.80;;;;;;;-144.47;65.59;52552.22;5006400;28;20030;-67
2023/06/14 06:17:53;;;;;;;15.32;3.92;;;;;;;-144.47;65.62;52585.97;5008455;28;20104;-68
2023/06/14 06:20:18;;;;;;;7.40;3.95;;;;;;;-144.47;65.97;52584.00;5008427;28;20076;-68
2023/06/14 06:22:43;;;;;;;8.30;3.50;;;;;;;-144.47;66.09;52550.25;5000428;28;20022;-69
2023/06/14 06:25:09;;;;;;;16.52;4.13;;;;;;;-144.47;64.78;52582.00;5005298;28;20037;-67
2023/06/14 06:27:37;;;;;;;10.27;4.10;;;;;;;-144.47;64.17;52552.22;5001058;28;20647;-69
2023/06/14 06:30:03;;;;;;;8.35;3.90;;;;;;;-144.47;64.03;52572.09;5007490;28;20029;-70
2023/06/14 06:32:28;;;;;;;8.30;4.53;;;;;;;-144.47;63.87;52550.25;5010385;28;20022;-68
2023/06/14 06:34:53;;;;;;;9.43;4.00;;;;;;;-144.47;63.02;52585.97;5010177;28;20057;-68
2023/06/14 06:37:19;;;;;;;10.23;3.90;;;;;;;-144.47;62.50;52552.22;5005889;28;20034;-71
2023/06/14 06:39:45;;;;;;;6.53;4.38;;;;;;;-144.47;62.22;52554.22;5004856;28;20542;-69
2023/06/14 06:42:10;;;;;;;15.48;4.22;;;;;;;-144.47;62.76;52562.16;5010048;28;20494;-69
2023/06/14 06:44:36;;;;;;;11.52;4.15;;;;;;;-144.47;61.08;52574.06;5010369;28;20399;-66
2023/06/14 06:47:02;;;;;;;6.18;3.95;;;;;;;-144.47;61.05;52554.22;5008464;28;20026;-71
2023/06/14 06:49:27;;;;;;;7.47;4.22;;;;;;;-144.47;61.09;52554.22;5008529;28;20296;-69
2023/06/14 06:52:03;;;;;;;7.80;4.07;;;;;;;-144.47;59.97;52593.94;5010844;28;20026;-70
2023/06/14 06:54:28;;;;;;;10.15;4.40;;;;;;;-144.47;58.83;52542.28;5010058;28;20399;-70
2023/06/14 06:56:53;;;;;;;6.50;3.55;;;;;;;-144.47;59.13;52542.28;5010946;28;20563;-71
2023/06/14 06:59:19;;;;;;;8.40;3.90;;;;;;;-144.47;59.21;52572.09;5010543;28;20021;-72
2023/06/14 07:01:44;;;;;;;7.20;3.80;;;;;;;-144.47;58.80;52554.22;5011057;28;20399;-72
2023/06/14 07:04:10;;;;;;;7.50;3.88;;;;;;;-144.47;59.40;52566.13;5010073;28;20084;-71
2023/06/14 07:06:35;;;;;;;8.65;3.88;;;;;;;-144.47;58.45;52556.19;5010607;28;20112;-71
2023/06/14 07:09:01;;;;;;;7.85;3.45;;;;;;;-144.47;57.66;52536.34;5008407;28;20017;-68
2023/06/14 07:11:27;;;;;;;15.52;4.32;;;;;;;-144.47;56.78;52560.16;5010799;28;20100;-68
2023/06/14 07:13:52;;;;;;;14.32;4.70;;;;;;;-144.47;57.54;52548.25;5009664;28;20498;-72
2023/06/14 07:16:18;;;;;;;10.05;3.97;;;;;;;-144.47;57.76;52572.09;5009776;28;20026;-71
2023/06/14 07:18:43;;;;;;;6.70;3.28;;;;;;;-144.47;56.64;52532.38;5010461;28;20026;-71
2023/06/14 07:21:09;;;;;;;7.07;3.95;;;;;;;-144.47;56.97;52548.25;5010308;28;20030;-71
2023/06/14 07:23:35;;;;;;;8.15;3.08;;;;;;;-144.47;56.16;52548.25;5010393;28;20488;-70
2023/06/14 07:26:00;;;;;;;7.43;3.75;;;;;;;-144.47;55.71;52558.19;5010015;28;20028;-69
2023/06/14 07:28:26;;;;;;;17.38;4.18;;;;;;;-144.47;55.59;52562.16;5008148;28;20037;-68
2023/06/14 07:30:51;;;;;;;12.90;3.10;;;;;;;-144.47;54.85;52542.28;5010140;28;20493;-70
2023/06/14 07:33:16;;;;;;;5.53;3.20;;;;;;;-144.47;54.84;52560.16;5009958;28;20022;-70
2023/06/14 07:35:42;;;;;;;7.88;3.50;;;;;;;-144.47;54.70;52544.28;5009521;28;20038;-71
2023/06/14 07:38:07;;;;;;;7.93;3.17;;;;;;;-144.47;53.47;52526.41;5010182;28;20121;-71
2023/06/14 07:40:32;;;;;;;11.00;3.45;;;;;;;-144.47;53.48;52560.16;5009322;28;20157;-70
2023/06/14 07:42:58;;;;;;;11.18;4.22;;;;;;;-144.47;53.72;52534.34;5010042;28;20160;-70
2023/06/14 07:45:23;;;;;;;8.95;3.65;;;;;;;-144.47;53.36;52550.25;5007810;28;20492;-70
2023/06/14 07:47:49;;;;;;;9.35;3.25;;;;;;;-144.47;53.30;52546.25;5009832;28;20106;-67
2023/06/14 07:50:15;;;;;;;4.70;2.97;;;;;;;-144.47;53.51;52548.25;5009886;28;20508;-68
2023/06/14 07:52:40;;;;;;;8.07;2.97;;;;;;;-144.47;50.77;52548.25;5010141;28;20088;-68
2023/06/14 07:55:06;;;;;;;9.88;2.60;;;;;;;-144.47;51.17;52540.31;5011287;28;20034;-70
2023/06/14 07:57:32;;;;;;;18.38;4.00;;;;;;;-144.47;50.44;52558.19;5014055;28;20026;-72
2023/06/14 07:59:57;;;;;;;8.40;2.97;;;;;;;-144.47;50.38;52554.22;5013716;28;20124;-69
2023/06/14 08:02:24;;;;;;;9.02;5.85;;;;;;;-144.47;50.38;52530.38;5013930;28;20476;-70
2023/06/14 08:04:49;;;;;;;9.55;3.67;;;;;;;-144.47;49.95;52548.25;5012264;28;20105;-69
2023/06/14 08:07:15;;;;;;;11.20;2.80;;;;;;;-144.47;49.47;52540.31;5015443;28;20029;-68
2023/06/14 08:09:40;;;;;;;9.98;3.42;;;;;;;-144.47;49.55;52536.34;5015997;28;20021;-70
2023/06/14 08:12:12;;;;;;;8.70;3.10;;;;;;;-144.47;49.43;52564.13;5013823;28;20373;-69
2023/06/14 08:14:39;;;;;;;12.48;2.83;;;;;;;-144.47;49.66;52564.13;5013697;28;20118;-69
2023/06/14 08:17:05;;;;;;;10.60;2.95;;;;;;;-144.47;49.62;52540.31;5011657;28;20022;-69
2023/06/14 08:19:30;;;;;;;11.38;3.47;;;;;;;-144.47;48.42;52550.25;5014291;28;20097;-70
2023/06/14 08:21:56;;;;;;;6.13;2.67;;;;;;;-144.47;48.17;52562.16;5012740;28;20472;-69
2023/06/14 08:24:26;;;;;;;9.15;2.85;;;;;;;-144.47;47.85;52554.22;5013561;28;20435;-69
2023/06/14 08:26:52;;;;;;;7.13;3.10;;;;;;;-144.47;46.85;52556.19;5013112;28;20018;-70
2023/06/14 08:29:18;;;;;;;8.02;3.05;;;;;;;-144.47;46.35;52550.25;5013406;28;20029;-70
2023/06/14 08:31:43;;;;;;;6.07;2.90;;;;;;;-144.47;46.11;52554.22;5013545;28;20025;-72
2023/06/14 08:34:09;;;;;;;12.68;3.75;;;;;;;-144.47;46.02;52532.38;5013038;28;20041;-68
2023/06/14 08:36:35;;;;;;;12.02;3.35;;;;;;;-144.47;46.39;52540.31;5012694;28;20026;-71
2023/06/14 08:39:00;;;;;;;11.75;2.83;;;;;;;-144.47;46.57;52552.22;5013360;28;20033;-69
2023/06/14 08:41:29;;;;;;;8.75;2.83;;;;;;;-144.47;47.11;52542.28;5011498;28;20026;-70
2023/06/14 08:43:56;;;;;;;6.90;2.63;;;;;;;-144.47;46.11;52520.44;5012371;28;20018;-68
2023/06/14 08:46:27;;;;;;;6.97;3.20;;;;;;;-144.47;45.78;52540.31;5012445;28;20025;-68
2023/06/14 08:48:56;;;;;;;7.28;3.03;;;;;;;-144.47;45.69;52546.25;5012865;28;20399;-70
2023/06/14 08:51:24;;;;;;;14.93;3.28;;;;;;;-144.47;45.33;52566.13;5000694;28;20087;-69
2023/06/14 08:53:57;;;;;;;7.65;2.90;;;;;;;-144.47;45.64;52520.44;5013757;28;20332;-69
2023/06/14 08:56:26;;;;;;;7.30;3.22;;;;;;;-144.47;44.70;52536.34;5012508;28;20065;-69
2023/06/14 08:58:52;;;;;;;7.78;3.28;;;;;;;-144.47;44.64;52540.31;5012165;28;20041;-70
2023/06/14 09:01:19;;;;;;;8.52;2.90;;;;;;;-144.47;43.00;52558.19;5012498;28;20122;-69
2023/06/14 09:03:44;;;;;;;6.72;2.95;;;;;;;-144.47;42.61;52556.19;5012275;28;20479;-70
2023/06/14 09:06:13;;;;;;;7.93;2.42;;;;;;;-144.47;42.87;52522.44;5012516;28;20091;-70
2023/06/14 09:08:48;;;;;;;7.60;2.70;;;;;;;-144.47;43.10;52550.25;5012094;28;20041;-67
2023/06/14 09:11:15;;;;;;;8.57;2.72;;;;;;;-144.47;43.06;52585.97;5012679;28;20037;-67
2023/06/14 09:13:41;;;;;;;8.23;2.50;;;;;;;-144.47;41.75;52550.25;5011906;28;20071;-71
2023/06/14 09:16:08;;;;;;;7.68;2.58;;;;;;;-144.47;41.18;52544.28;5011426;28;20105;-69
2023/06/14 09:18:43;;;;;;;6.60;3.13;;;;;;;-144.47;41.83;52566.13;5013084;28;20057;-69
2023/06/14 09:21:09;;;;;;;6.85;2.90;;;;;;;-144.47;42.15;52530.38;5011802;28;20484;-69
2023/06/14 09:23:42;;;;;;;11.82;3.38;;;;;;;-144.47;41.46;52576.06;5011645;28;20033;-67
2023/06/14 09:26:17;;;;;;;10.95;2.60;;;;;;;-144.47;42.56;52540.31;5011761;28;20032;-69
2023/06/14 09:28:47;;;;;;;6.65;2.80;;;;;;;-144.47;41.75;52564.13;5009942;28;20018;-70
2023/06/14 09:31:18;;;;;;;4.20;2.35;;;;;;;-144.47;41.65;52556.19;5011469;28;20044;-69
2023/06/14 09:33:48;;;;;;;6.00;2.75;;;;;;;-144.47;41.06;52548.25;5011874;28;20472;-68
2023/06/14 09:36:21;;;;;;;12.90;2.90;;;;;;;-144.47;40.41;52589.97;5010157;28;20021;-68
2023/06/14 09:38:58;;;;;;;7.22;3.00;;;;;;;-144.47;41.12;52530.38;5011696;28;20506;-67
2023/06/14 09:41:34;;;;;;;7.60;2.58;;;;;;;-144.47;40.65;52536.34;5011725;28;20048;-69
2023/06/14 09:44:00;;;;;;;8.63;2.67;;;;;;;-144.47;40.61;52546.25;5011984;28;20113;-67
2023/06/14 09:46:30;;;;;;;6.05;2.97;;;;;;;-144.47;39.97;52554.22;5004578;28;20125;-68
2023/06/14 09:48:56;;;;;;;4.72;2.33;;;;;;;-144.47;39.84;52554.22;5004967;28;20440;-68
2023/06/14 09:51:26;;;;;;;5.13;2.67;;;;;;;-144.47;40.23;52566.13;5011548;28;20018;-70
2023/06/14 09:53:53;;;;;;;6.82;2.70;;;;;;;-144.47;40.31;52566.13;5011251;28;20487;-70
2023/06/14 09:56:41;;;;;;;6.82;2.67;;;;;;;-144.47;40.32;52564.13;5011358;28;20072;-69
2023/06/14 09:59:09;;;;;;;5.07;2.60;;;;;;;-144.47;40.64;52530.38;5011432;28;20041;-67
2023/06/14 10:01:41;;;;;;;5.07;2.35;;;;;;;-144.47;40.67;52538.31;5011373;28;20053;-68
2023/06/14 10:04:07;;;;;;;6.35;3.17;;;;;;;-144.47;40.82;52560.16;5010883;28;20026;-70
2023/06/14 10:06:37;;;;;;;6.80;2.53;;;;;;;-144.47;40.48;52544.28;5010686;28;20057;-68
2023/06/14 10:09:05;;;;;;;8.40;2.42;;;;;;;-144.47;39.59;52570.09;5010116;28;20072;-70
2023/06/14 10:11:31;;;;;;;6.05;2.33;;;;;;;-144.47;38.54;52566.13;5013098;28;20028;-70
2023/06/14 10:13:57;;;;;;;9.63;2.30;;;;;;;-144.47;38.61;52546.25;5013998;28;20108;-71
2023/06/14 10:16:26;;;;;;;5.95;2.55;;;;;;;-144.47;38.99;52564.13;5009746;28;20025;-70
2023/06/14 10:19:02;;;;;;;7.60;2.38;;;;;;;-144.47;37.90;52576.06;5011246;28;20037;-71
2023/06/14 10:21:55;;;;;;;9.68;2.45;;;;;;;-144.47;36.36;52576.06;5012306;28;20510;-70
2023/06/14 10:24:29;;;;;;;10.02;2.25;;;;;;;-144.47;36.34;52568.13;5010866;28;20030;-68
2023/06/14 10:26:57;;;;;;;9.20;2.30;;;;;;;-144.47;36.95;52558.19;5010715;28;20044;-70
2023/06/14 10:29:23;;;;;;;3.60;1.98;;;;;;;-144.47;36.46;52576.06;5008560;28;20036;-71
2023/06/14 10:31:50;;;;;;;4.75;2.67;;;;;;;-144.47;36.48;52568.13;5010689;28;20041;-69
2023/06/14 10:34:28;;;;;;;4.83;2.20;;;;;;;-144.47;36.74;52560.16;5010018;28;20524;-70
2023/06/14 10:37:07;;;;;;;3.80;1.98;;;;;;;-144.47;37.34;52556.19;5010352;28;20326;-69
2023/06/14 10:39:41;;;;;;;7.95;2.38;;;;;;;-144.47;37.29;52568.13;5010975;28;20025;-69
2023/06/14 10:42:07;;;;;;;4.15;2.17;;;;;;;-144.47;37.92;52568.13;5010757;28;20529;-71
2023/06/14 10:44:55;;;;;;;4.85;2.10;;;;;;;-144.47;37.77;52556.19;5010320;28;20026;-68
2023/06/14 10:47:23;;;;;;;4.22;2.00;;;;;;;-144.47;38.52;52546.25;5022776;23;20050;-66
2023/06/14 10:50:14;;;;;;;4.45;2.17;;;;;;;-144.47;38.88;52536.34;5010293;28;20046;-67
2023/06/14 10:52:41;;;;;;;4.60;2.33;;;;;;;-144.47;38.83;52564.13;5009530;28;20032;-68
2023/06/14 10:55:11;;;;;;;7.65;2.45;;;;;;;-144.47;38.82;52526.41;5010291;28;20040;-68
2023/06/14 10:57:41;;;;;;;2.83;1.75;;;;;;;-144.47;38.88;52576.06;5008859;28;20044;-68
2023/06/14 11:00:17;;;;;;;4.22;1.73;;;;;;;-144.47;38.97;52554.22;5009872;28;20038;-65
2023/06/14 11:03:07;;;;;;;3.45;1.60;;;;;;;-144.47;38.36;52587.97;5010365;28;20049;-68
2023/06/14 11:05:49;;;;;;;4.75;1.90;;;;;;;-144.47;38.39;52554.22;5008307;28;20137;-68
2023/06/14 11:08:40;;;;;;;4.68;1.73;;;;;;;-144.47;38.10;52548.25;5010344;28;20068;-67
2023/06/14 11:11:09;;;;;;;3.33;1.52;;;;;;;-144.47;38.41;52544.28;5014794;28;20080;-66
2023/06/14 11:13:38;;;;;;;5.90;2.15;;;;;;;-144.47;38.27;52595.91;5009556;28;20098;-69
2023/06/14 11:16:10;;;;;;;5.50;2.15;;;;;;;-144.47;38.58;52554.22;5008968;28;20046;-66
2023/06/14 11:18:36;;;;;;;8.98;2.42;;;;;;;-144.47;38.62;52589.97;5011185;28;20045;-69